createdAt,value
2023-08-12T00:02:17.596Z,100903.53
2023-08-12T00:04:44.619Z,100902.72
2023-08-12T00:07:11.552Z,100901.13
2023-08-12T00:09:38.622Z,100903.53
2023-08-12T00:12:05.655Z,100904.63
2023-08-12T00:14:35.224Z,100903.53
2023-08-12T00:17:02.358Z,100901.94
2023-08-12T00:19:29.153Z,100895.75
2023-08-12T00:21:56.191Z,100895.75
2023-08-12T00:24:23.266Z,100897.34
2023-08-12T00:26:50.260Z,100889.56
2023-08-12T00:29:17.156Z,100886.56
2023-08-12T00:31:44.297Z,100884.19
2023-08-12T00:34:11.239Z,100888.75
2023-08-12T00:36:38.207Z,100878.00
2023-08-12T00:39:05.200Z,100879.59
2023-08-12T00:41:32.082Z,100886.88
2023-08-12T00:43:58.865Z,100882.53
2023-08-12T00:46:26.124Z,100884.44
2023-08-12T00:48:53.148Z,100882.53
2023-08-12T00:51:20.143Z,100878.78
2023-08-12T00:53:47.962Z,100880.69
2023-08-12T00:56:14.904Z,100878.00
2023-08-12T00:58:42.289Z,100874.47
2023-08-12T01:01:09.267Z,100878.25
2023-08-12T01:03:36.550Z,100874.47
2023-08-12T01:06:04.315Z,100882.53
2023-08-12T01:08:32.646Z,100869.09
2023-08-12T01:11:08.326Z,100868.56
2023-08-12T01:13:40.936Z,100875.56
2023-08-12T01:16:09.566Z,100867.47
2023-08-12T01:18:38.687Z,100868.56
2023-08-12T01:21:08.041Z,100864.78
2023-08-12T01:23:34.833Z,100866.69
2023-08-12T01:26:01.597Z,100870.16
2023-08-12T01:28:28.297Z,100870.16
2023-08-12T01:31:04.613Z,100876.66
2023-08-12T01:33:45.658Z,100868.56
2023-08-12T01:36:19.503Z,100868.56
2023-08-12T01:38:46.733Z,100876.66
2023-08-12T01:41:15.012Z,100876.09
2023-08-12T01:43:43.475Z,100882.28
2023-08-12T01:46:11.097Z,100876.09
2023-08-12T01:48:37.953Z,100865.34
2023-08-12T01:51:04.671Z,100865.34
2023-08-12T01:53:31.637Z,100860.75
2023-08-12T01:55:58.685Z,100859.94
2023-08-12T01:58:28.926Z,100855.38
2023-08-12T02:00:58.942Z,100854.56
2023-08-12T02:03:26.292Z,100859.16
2023-08-12T02:05:53.152Z,100867.50
2023-08-12T02:08:20.037Z,100858.34
2023-08-12T02:10:47.085Z,100863.72
2023-08-12T02:13:14.031Z,100855.16
2023-08-12T02:15:40.766Z,100861.59
2023-08-12T02:18:07.620Z,100863.22
2023-08-12T02:20:34.969Z,100864.28
2023-08-12T02:23:01.937Z,100858.09
2023-08-12T02:25:29.165Z,100854.59
2023-08-12T02:27:56.067Z,100854.59
2023-08-12T02:30:23.136Z,100857.28
2023-08-12T02:32:50.161Z,100851.09
2023-08-12T02:35:20.100Z,100858.09
2023-08-12T02:37:47.054Z,100854.09
2023-08-12T02:40:13.878Z,100850.31
2023-08-12T02:42:41.072Z,100852.47
2023-08-12T02:45:08.322Z,100854.09
2023-08-12T02:47:38.034Z,100855.16
2023-08-12T02:50:05.155Z,100850.31
2023-08-12T02:52:32.324Z,100858.62
2023-08-12T02:54:59.052Z,100857.84
2023-08-12T02:57:26.036Z,100864.84
2023-08-12T02:59:52.901Z,100864.03
2023-08-12T03:02:19.845Z,100858.62
2023-08-12T03:04:49.370Z,100863.22
2023-08-12T03:07:16.359Z,100857.03
2023-08-12T03:09:43.194Z,100860.53
2023-08-12T03:12:10.480Z,100859.47
2023-08-12T03:14:37.358Z,100862.41
2023-08-12T03:17:04.161Z,100867.00
2023-08-12T03:19:31.246Z,100855.44
2023-08-12T03:21:58.222Z,100867.00
2023-08-12T03:24:25.148Z,100867.00
2023-08-12T03:26:51.847Z,100861.63
2023-08-12T03:29:18.716Z,100865.41
2023-08-12T03:31:45.405Z,100863.78
2023-08-12T03:34:12.394Z,100866.75
2023-08-12T03:36:39.510Z,100865.94
2023-08-12T03:39:06.318Z,100863.78
2023-08-12T03:41:33.252Z,100864.06
2023-08-12T03:44:00.937Z,100869.44
2023-08-12T03:46:29.646Z,100875.62
2023-08-12T03:48:56.442Z,100875.09
2023-08-12T03:51:26.283Z,100877.25
2023-08-12T03:53:53.398Z,100876.16
2023-08-12T03:56:21.836Z,100885.06
2023-08-12T03:58:48.870Z,100882.38
2023-08-12T04:01:15.796Z,100877.81
2023-08-12T04:03:46.018Z,100875.38
2023-08-12T04:06:13.119Z,100877.25
2023-08-12T04:08:43.060Z,100877.25
2023-08-12T04:11:10.066Z,100879.16
2023-08-12T04:13:37.002Z,100876.47
2023-08-12T04:16:03.778Z,100882.13
2023-08-12T04:18:30.575Z,100880.22
2023-08-12T04:21:00.403Z,100874.06
2023-08-12T04:23:27.172Z,100875.66
2023-08-12T04:25:54.246Z,100874.06
2023-08-12T04:28:21.062Z,100875.66
2023-08-12T04:30:48.735Z,100875.09
2023-08-12T04:33:15.889Z,100873.25
2023-08-12T04:35:42.900Z,100873.50
2023-08-12T04:38:09.903Z,100877.78
2023-08-12T04:40:39.986Z,100876.75
2023-08-12T04:43:07.096Z,100872.41
2023-08-12T04:45:34.046Z,100875.66
2023-08-12T04:48:00.864Z,100866.78
2023-08-12T04:50:31.213Z,100868.66
2023-08-12T04:52:58.468Z,100877.78
2023-08-12T04:55:28.989Z,100872.41
2023-08-12T04:57:58.442Z,100878.88
2023-08-12T05:00:25.425Z,100876.19
2023-08-12T05:02:52.303Z,100876.19
2023-08-12T05:05:19.556Z,100878.63
2023-08-12T05:07:46.414Z,100877.78
2023-08-12T05:10:17.158Z,100870.81
2023-08-12T05:12:44.357Z,100868.13
2023-08-12T05:15:11.611Z,100872.41
2023-08-12T05:17:41.656Z,100878.88
2023-08-12T05:20:08.947Z,100881.31
2023-08-12T05:22:38.596Z,100877.78
2023-08-12T05:25:05.596Z,100875.66
2023-08-12T05:27:32.641Z,100879.94
2023-08-12T05:29:59.351Z,100884.00
2023-08-12T05:32:26.353Z,100886.97
2023-08-12T05:34:56.927Z,100879.97
2023-08-12T05:37:26.843Z,100884.56
2023-08-12T05:39:54.669Z,100882.13
2023-08-12T05:42:24.478Z,100878.38
2023-08-12T05:44:54.757Z,100884.03
2023-08-12T05:47:21.690Z,100885.38
2023-08-12T05:49:48.854Z,100882.16
2023-08-12T05:52:16.043Z,100884.56
2023-08-12T05:54:43.135Z,100880.81
2023-08-12T05:57:10.047Z,100882.16
2023-08-12T05:59:36.819Z,100876.25
2023-08-12T06:02:06.191Z,100882.16
2023-08-12T06:04:33.028Z,100878.41
2023-08-12T06:06:59.606Z,100886.47
2023-08-12T06:09:29.220Z,100882.69
2023-08-12T06:12:02.226Z,100884.34
2023-08-12T06:14:29.373Z,100888.63
2023-08-12T06:16:59.414Z,100886.47
2023-08-12T06:19:26.309Z,100886.47
2023-08-12T06:21:52.907Z,100879.44
2023-08-12T06:24:22.015Z,100880.00
2023-08-12T06:26:48.643Z,100868.94
2023-08-12T06:29:18.432Z,100875.69
2023-08-12T06:31:45.301Z,100876.25
2023-08-12T06:34:12.082Z,100871.09
2023-08-12T06:36:38.756Z,100877.31
2023-08-12T06:39:05.493Z,100876.47
2023-08-12T06:41:32.139Z,100875.69
2023-08-12T06:44:04.873Z,100878.13
2023-08-12T06:46:31.515Z,100874.88
2023-08-12T06:48:58.937Z,100872.44
2023-08-12T06:51:25.464Z,100874.06
2023-08-12T06:53:54.664Z,100874.84
2023-08-12T06:56:22.718Z,100870.00
2023-08-12T06:58:52.856Z,100869.22
2023-08-12T07:01:21.524Z,100862.47
2023-08-12T07:03:48.838Z,100865.41
2023-08-12T07:06:19.671Z,100869.16
2023-08-12T07:08:49.420Z,100865.41
2023-08-12T07:11:16.225Z,100869.69
2023-08-12T07:13:42.910Z,100866.47
2023-08-12T07:16:09.829Z,100858.91
2023-08-12T07:18:40.761Z,100863.47
2023-08-12T07:21:07.788Z,100867.50
2023-08-12T07:23:34.552Z,100870.22
2023-08-12T07:26:01.646Z,100865.91
2023-08-12T07:28:28.451Z,100862.94
2023-08-12T07:30:55.503Z,100865.34
2023-08-12T07:33:22.313Z,100867.50
2023-08-12T07:35:48.883Z,100862.12
2023-08-12T07:38:15.624Z,100866.44
2023-08-12T07:40:45.075Z,100875.31
2023-08-12T07:43:12.793Z,100871.81
2023-08-12T07:45:39.394Z,100875.31
2023-08-12T07:48:06.049Z,100869.12
2023-08-12T07:50:35.463Z,100864.53
2023-08-12T07:53:05.279Z,100869.91
2023-08-12T07:55:34.729Z,100864.53
2023-08-12T07:58:01.333Z,100871.81
2023-08-12T08:00:30.357Z,100867.22
2023-08-12T08:02:57.057Z,100866.97
2023-08-12T08:05:27.728Z,100863.44
2023-08-12T08:07:54.885Z,100861.59
2023-08-12T08:10:21.584Z,100866.97
2023-08-12T08:12:48.355Z,100866.97
2023-08-12T08:15:14.883Z,100872.06
2023-08-12T08:17:42.744Z,100871.25
2023-08-12T08:20:10.549Z,100864.78
2023-08-12T08:22:37.456Z,100857.81
2023-08-12T08:25:06.735Z,100863.19
2023-08-12T08:27:37.377Z,100868.56
2023-08-12T08:30:04.067Z,100864.00
2023-08-12T08:32:33.282Z,100859.41
2023-08-12T08:35:00.119Z,100854.03
2023-08-12T08:37:26.748Z,100854.03
2023-08-12T08:39:53.270Z,100853.22
2023-08-12T08:42:21.322Z,100848.62
2023-08-12T08:44:51.748Z,100856.44
2023-08-12T08:47:20.671Z,100862.62
2023-08-12T08:49:47.606Z,100863.44
2023-08-12T08:52:18.916Z,100861.00
2023-08-12T08:54:48.310Z,100861.53
2023-08-12T08:57:17.011Z,100864.25
2023-08-12T08:59:46.658Z,100864.25
2023-08-12T09:02:22.365Z,100857.25
2023-08-12T09:04:49.498Z,100863.16
2023-08-12T09:07:16.051Z,100868.53
2023-08-12T09:09:45.701Z,100861.25
2023-08-12T09:12:14.735Z,100859.38
2023-08-12T09:14:41.358Z,100860.19
2023-08-12T09:17:11.470Z,100861.25
2023-08-12T09:19:44.895Z,100846.72
2023-08-12T09:22:11.856Z,100850.75
2023-08-12T09:24:38.617Z,100848.59
2023-08-12T09:27:05.775Z,100851.78
2023-08-12T09:29:33.520Z,100845.84
2023-08-12T09:32:19.419Z,100838.31
2023-08-12T09:34:52.468Z,100846.91
2023-08-12T09:37:22.054Z,100849.31
2023-08-12T09:39:49.110Z,100845.56
2023-08-12T09:42:16.950Z,100847.97
2023-08-12T09:44:46.484Z,100844.19
2023-08-12T09:47:13.228Z,100844.19
2023-08-12T09:49:42.847Z,100848.50
2023-08-12T09:52:10.690Z,100840.41
2023-08-12T09:54:37.904Z,100843.91
2023-08-12T09:57:09.461Z,100835.53
2023-08-12T09:59:36.879Z,100831.50
2023-08-12T10:02:04.340Z,100831.50
2023-08-12T10:04:51.314Z,100826.91
2023-08-12T10:07:18.595Z,100830.41
2023-08-12T10:09:48.841Z,100825.31
2023-08-12T10:12:18.813Z,100821.81
2023-08-12T10:14:46.034Z,100825.56
2023-08-12T10:17:42.732Z,100820.97
2023-08-12T10:20:21.331Z,100814.53
2023-08-12T10:22:48.580Z,100807.25
2023-08-12T10:25:15.613Z,100813.44
2023-08-12T10:27:43.944Z,100808.56
2023-08-12T10:30:10.901Z,100808.56
2023-08-12T10:32:38.868Z,100802.91
2023-08-12T10:35:06.220Z,100810.19
2023-08-12T10:37:34.073Z,100801.03
2023-08-12T10:40:06.547Z,100802.63
2023-08-12T10:42:42.714Z,100800.72
2023-08-12T10:45:09.618Z,100803.16
2023-08-12T10:47:43.813Z,100789.69
2023-08-12T10:50:26.172Z,100794.53
2023-08-12T10:52:54.069Z,100789.94
2023-08-12T10:55:22.683Z,100785.34
2023-08-12T10:57:57.306Z,100781.56
2023-08-12T11:00:30.587Z,100777.78
2023-08-12T11:02:58.955Z,100776.72
2023-08-12T11:05:25.975Z,100781.84
2023-08-12T11:07:59.747Z,100778.34
2023-08-12T11:10:32.067Z,100777.25
2023-08-12T11:13:04.272Z,100775.66
2023-08-12T11:15:33.756Z,100778.03
2023-08-12T11:18:03.807Z,100775.09
2023-08-12T11:20:30.522Z,100774.25
2023-08-12T11:22:59.966Z,100765.13
2023-08-12T11:25:30.506Z,100771.31
2023-08-12T11:28:01.098Z,100769.69
2023-08-12T11:30:33.022Z,100760.53
2023-08-12T11:33:03.233Z,100760.53
2023-08-12T11:35:30.031Z,100757.81
2023-08-12T11:37:59.960Z,100752.44
2023-08-12T11:40:33.322Z,100760.53
2023-08-12T11:42:59.965Z,100751.34
2023-08-12T11:45:29.801Z,100752.16
2023-08-12T11:47:56.902Z,100751.34
2023-08-12T11:50:27.621Z,100734.09
2023-08-12T11:52:56.594Z,100738.41
2023-08-12T11:55:25.286Z,100733.03
2023-08-12T11:57:55.207Z,100733.03
2023-08-12T12:00:22.288Z,100737.31
2023-08-12T12:02:51.986Z,100736.22
2023-08-12T12:05:29.079Z,100721.66
2023-08-12T12:07:55.916Z,100730.81
2023-08-12T12:10:35.023Z,100718.97
2023-08-12T12:13:03.252Z,100721.66
2023-08-12T12:15:39.401Z,100712.50
2023-08-12T12:18:10.684Z,100717.09
2023-08-12T12:20:37.321Z,100714.09
2023-08-12T12:23:08.533Z,100708.72
2023-08-12T12:25:35.261Z,100711.41
2023-08-12T12:28:04.187Z,100709.22
2023-08-12T12:30:35.286Z,100714.59
2023-08-12T12:33:01.998Z,100703.81
2023-08-12T12:35:28.821Z,100713.53
2023-08-12T12:38:01.355Z,100715.13
2023-08-12T12:40:27.996Z,100701.97
2023-08-12T12:42:54.854Z,100705.44
2023-08-12T12:45:21.562Z,100704.34
2023-08-12T12:47:48.225Z,100703.25
2023-08-12T12:50:17.886Z,100711.34
2023-08-12T12:52:44.978Z,100704.84
2023-08-12T12:55:11.921Z,100701.37
2023-08-12T12:57:38.937Z,100702.16
2023-08-12T13:00:05.888Z,100703.00
2023-08-12T13:02:32.650Z,100700.00
2023-08-12T13:05:02.409Z,100696.22
2023-08-12T13:07:31.723Z,100696.22
2023-08-12T13:09:58.304Z,100698.91
2023-08-12T13:12:31.191Z,100685.44
2023-08-12T13:15:02.255Z,100687.06
2023-08-12T13:17:29.321Z,100683.28
2023-08-12T13:19:56.013Z,100681.66
2023-08-12T13:22:22.775Z,100684.87
2023-08-12T13:24:52.826Z,100674.87
2023-08-12T13:27:20.234Z,100670.28
2023-08-12T13:29:46.817Z,100672.72
2023-08-12T13:32:16.897Z,100673.53
2023-08-12T13:34:46.922Z,100671.63
2023-08-12T13:37:13.521Z,100668.13
2023-08-12T13:39:40.172Z,100664.34
2023-08-12T13:42:06.900Z,100658.94
2023-08-12T13:44:33.418Z,100663.53
2023-08-12T13:47:02.968Z,100663.53
2023-08-12T13:49:29.614Z,100659.75
2023-08-12T13:51:56.289Z,100661.06
2023-08-12T13:54:23.039Z,100653.00
2023-08-12T13:56:49.651Z,100654.59
2023-08-12T13:59:16.420Z,100646.00
2023-08-12T14:01:46.347Z,100645.69
2023-08-12T14:04:13.043Z,100646.50
2023-08-12T14:06:39.689Z,100640.00
2023-08-12T14:09:09.254Z,100641.63
2023-08-12T14:11:35.998Z,100636.25
2023-08-12T14:14:05.386Z,100636.25
2023-08-12T14:16:32.489Z,100634.03
2023-08-12T14:19:01.868Z,100634.03
2023-08-12T14:21:28.675Z,100628.66
2023-08-12T14:23:56.705Z,100629.47
2023-08-12T14:26:23.555Z,100631.88
2023-08-12T14:28:53.041Z,100619.47
2023-08-12T14:31:19.729Z,100626.50
2023-08-12T14:33:46.438Z,100621.09
2023-08-12T14:36:13.059Z,100614.59
2023-08-12T14:38:39.693Z,100613.81
2023-08-12T14:41:06.395Z,100620.00
2023-08-12T14:43:35.670Z,100618.09
2023-08-12T14:46:05.154Z,100613.50
2023-08-12T14:48:32.884Z,100608.12
2023-08-12T14:50:59.651Z,100603.25
2023-08-12T14:53:26.612Z,100604.31
2023-08-12T14:55:56.143Z,100609.72
2023-08-12T14:58:22.818Z,100606.75
2023-08-12T15:00:50.115Z,100598.12
2023-08-12T15:03:16.868Z,100605.16
2023-08-12T15:05:43.491Z,100595.16
2023-08-12T15:08:10.155Z,100587.09
2023-08-12T15:10:43.056Z,100594.38
2023-08-12T15:13:10.042Z,100584.38
2023-08-12T15:15:36.720Z,100591.38
2023-08-12T15:18:06.487Z,100585.97
2023-08-12T15:20:35.601Z,100585.97
2023-08-12T15:23:08.825Z,100583.28
2023-08-12T15:25:39.202Z,100576.78
2023-08-12T15:28:05.834Z,100573.00
2023-08-12T15:30:35.983Z,100574.91
2023-08-12T15:33:02.772Z,100567.59
2023-08-12T15:35:29.421Z,100573.00
2023-08-12T15:37:58.796Z,100578.38
2023-08-12T15:40:29.072Z,100578.12
2023-08-12T15:42:55.698Z,100573.00
2023-08-12T15:45:25.597Z,100574.62
2023-08-12T15:47:52.210Z,100569.22
2023-08-12T15:50:18.755Z,100565.44
2023-08-12T15:52:45.339Z,100564.62
2023-08-12T15:55:12.017Z,100568.13
2023-08-12T15:57:38.613Z,100558.16
2023-08-12T16:00:05.346Z,100557.34
2023-08-12T16:02:35.393Z,100556.25
2023-08-12T16:05:08.288Z,100556.25
2023-08-12T16:07:34.965Z,100557.03
2023-08-12T16:10:01.677Z,100560.84
2023-08-12T16:12:29.863Z,100550.84
2023-08-12T16:14:56.733Z,100557.03
2023-08-12T16:17:23.333Z,100552.47
2023-08-12T16:19:49.923Z,100555.66
2023-08-12T16:22:16.721Z,100548.69
2023-08-12T16:24:43.285Z,100556.25
2023-08-12T16:27:09.996Z,100552.47
2023-08-12T16:29:42.544Z,100565.66
2023-08-12T16:32:12.736Z,100558.66
2023-08-12T16:34:39.582Z,100562.16
2023-08-12T16:37:20.759Z,100560.25
2023-08-12T16:39:51.514Z,100554.06
2023-08-12T16:42:20.061Z,100564.06
2023-08-12T16:44:51.502Z,100556.78
2023-08-12T16:47:18.155Z,100560.56
2023-08-12T16:49:47.449Z,100563.25
2023-08-12T16:52:14.910Z,100564.88
2023-08-12T16:54:43.215Z,100557.88
2023-08-12T16:57:09.892Z,100558.94
2023-08-12T16:59:36.448Z,100559.75
2023-08-12T17:02:05.048Z,100557.88
2023-08-12T17:04:31.701Z,100561.63
2023-08-12T17:07:01.157Z,100554.66
2023-08-12T17:09:28.104Z,100554.66
2023-08-12T17:11:54.919Z,100554.66
2023-08-12T17:14:21.532Z,100548.47
2023-08-12T17:16:48.181Z,100558.44
2023-08-12T17:19:14.860Z,100543.34
2023-08-12T17:21:41.430Z,100549.56
2023-08-12T17:24:08.213Z,100547.12
2023-08-12T17:26:37.767Z,100539.06
2023-08-12T17:29:04.957Z,100547.12
2023-08-12T17:31:34.862Z,100549.03
2023-08-12T17:34:01.533Z,100542.84
2023-08-12T17:36:28.265Z,100543.94
2023-08-12T17:38:54.953Z,100543.94
2023-08-12T17:41:21.485Z,100545.03
2023-08-12T17:43:48.195Z,100534.22
2023-08-12T17:46:14.922Z,100545.03
2023-08-12T17:48:44.805Z,100546.13
2023-08-12T17:51:14.691Z,100543.41
2023-08-12T17:53:49.308Z,100554.22
2023-08-12T17:56:16.185Z,100552.59
2023-08-12T17:58:42.882Z,100558.00
2023-08-12T18:01:09.780Z,100552.59
2023-08-12T18:03:37.869Z,100551.50
2023-08-12T18:06:07.850Z,100551.25
2023-08-12T18:08:38.311Z,100558.22
2023-08-12T18:11:07.354Z,100549.03
2023-08-12T18:13:34.352Z,100559.81
2023-08-12T18:16:01.071Z,100562.22
2023-08-12T18:18:27.836Z,100562.22
2023-08-12T18:20:58.110Z,100557.66
2023-08-12T18:23:24.884Z,100563.84
2023-08-12T18:25:54.324Z,100569.22
2023-08-12T18:28:24.346Z,100567.59
2023-08-12T18:30:54.164Z,100569.00
2023-08-12T18:33:20.810Z,100571.19
2023-08-12T18:35:50.797Z,100574.41
2023-08-12T18:38:17.647Z,100579.00
2023-08-12T18:40:44.475Z,100580.59
2023-08-12T18:43:14.272Z,100579.00
2023-08-12T18:45:40.805Z,100585.97
2023-08-12T18:48:10.107Z,100594.56
2023-08-12T18:50:37.400Z,100601.59
2023-08-12T18:53:04.173Z,100599.97
2023-08-12T18:55:30.898Z,100599.97
2023-08-12T18:57:57.556Z,100602.66
2023-08-12T19:00:24.555Z,100611.56
2023-08-12T19:02:57.144Z,100599.16
2023-08-12T19:05:24.197Z,100602.94
2023-08-12T19:10:58.107Z,100600.56
2023-08-12T19:13:31.321Z,100595.16
2023-08-12T19:15:59.425Z,100608.66
2023-08-12T19:18:26.477Z,100602.47
2023-08-12T19:20:53.936Z,100607.03
2023-08-12T19:23:21.725Z,100624.28
2023-08-12T19:25:48.980Z,100621.09
2023-08-12T19:28:25.092Z,100622.16
2023-08-12T19:30:52.353Z,100620.31
2023-08-12T19:45:17.503Z,100623.84
2023-08-12T20:08:07.918Z,100640.59
2023-08-12T20:13:53.884Z,100644.37
2023-08-12T20:16:45.433Z,100641.69
2023-08-12T20:25:10.882Z,100638.97
2023-08-12T20:27:56.698Z,100636.28
2023-08-12T20:30:46.272Z,100636.81
2023-08-12T20:33:19.323Z,100632.53
2023-08-12T20:35:46.546Z,100631.69
2023-08-12T20:38:15.184Z,100640.59
2023-08-12T20:40:42.395Z,100641.41
2023-08-12T20:43:09.526Z,100636.28
2023-08-12T20:45:36.694Z,100644.91
2023-08-12T20:48:11.639Z,100639.50
2023-08-12T20:50:38.621Z,100640.59
2023-08-12T20:53:10.923Z,100646.00
2023-08-12T20:55:37.825Z,100639.50
2023-08-12T20:58:05.262Z,100646.00
2023-08-12T21:00:35.671Z,100635.22
2023-08-12T21:03:05.901Z,100638.97
2023-08-12T21:05:42.993Z,100633.59
2023-08-12T21:08:10.000Z,100627.41
2023-08-12T21:10:37.094Z,100633.59
2023-08-12T21:13:07.114Z,100624.44
2023-08-12T21:15:34.977Z,100626.59
2023-08-12T21:18:01.860Z,100627.41
2023-08-12T21:20:32.476Z,100632.00
2023-08-12T21:22:59.382Z,100632.00
2023-08-12T21:25:29.573Z,100627.69
2023-08-12T21:27:59.716Z,100620.41
2023-08-12T21:30:30.122Z,100630.41
2023-08-12T21:32:57.298Z,100624.22
2023-08-12T21:35:27.937Z,100615.81
2023-08-12T21:37:54.938Z,100615.81
2023-08-12T21:40:28.212Z,100625.00
2023-08-12T21:42:55.529Z,100625.81
2023-08-12T21:45:25.706Z,100625.00
2023-08-12T21:47:57.082Z,100626.09
2023-08-12T21:50:28.187Z,100629.59
2023-08-12T21:52:59.164Z,100630.41
2023-08-12T21:55:27.978Z,100634.19
2023-08-12T21:57:54.984Z,100633.09
2023-08-12T22:00:25.190Z,100641.19
2023-08-12T22:02:56.083Z,100638.47
2023-08-12T22:05:30.224Z,100643.87
2023-08-12T22:08:00.135Z,100632.00
2023-08-12T22:10:27.176Z,100630.41
2023-08-12T22:12:54.028Z,100625.00
2023-08-12T22:15:24.364Z,100625.00
2023-08-12T22:17:52.518Z,100613.13
2023-08-12T22:20:19.557Z,100608.84
2023-08-12T22:22:46.356Z,100623.41
2023-08-12T22:25:16.478Z,100626.09
2023-08-12T22:27:46.339Z,100625.56
2023-08-12T22:30:13.333Z,100626.38
2023-08-12T22:32:43.345Z,100623.97
2023-08-12T22:35:13.215Z,100630.97
2023-08-12T22:37:43.280Z,100618.59
2023-08-12T22:40:13.929Z,100623.97
2023-08-12T22:42:41.349Z,100633.97
2023-08-12T22:45:12.189Z,100631.53
2023-08-12T22:47:45.427Z,100626.13
2023-08-12T22:50:15.906Z,100627.78
2023-08-12T22:52:43.225Z,100635.31
2023-08-12T22:55:10.291Z,100640.72
2023-08-12T22:57:37.204Z,100628.34
2023-08-12T23:00:07.307Z,100635.31
2023-08-12T23:02:36.909Z,100640.72
2023-08-12T23:05:04.560Z,100632.09
2023-08-12T23:07:38.307Z,100632.63
2023-08-12T23:10:05.714Z,100635.62
2023-08-12T23:12:35.713Z,100635.62
2023-08-12T23:15:06.928Z,100640.72
2023-08-12T23:17:33.958Z,100629.63
2023-08-12T23:20:01.275Z,100624.53
2023-08-12T23:22:31.173Z,100624.53
2023-08-12T23:25:03.543Z,100628.34
2023-08-12T23:27:35.095Z,100628.34
2023-08-12T23:30:07.112Z,100627.81
2023-08-12T23:32:37.498Z,100620.53
2023-08-12T23:35:04.524Z,100622.16
2023-08-12T23:37:34.577Z,100617.56
2023-08-12T23:40:01.546Z,100620.25
2023-08-12T23:42:28.999Z,100623.50
2023-08-12T23:44:58.663Z,100623.50
2023-08-12T23:47:25.830Z,100615.72
2023-08-12T23:49:58.781Z,100616.53
2023-08-12T23:52:26.278Z,100617.59
2023-08-12T23:54:53.501Z,100608.72
2023-08-12T23:57:23.825Z,100609.50
2023-08-12T23:59:50.816Z,100608.94
